sensor_id;sensor_type;location;lat;lon;timestamp;pressure;altitude;pressure_sealevel;temperature;humidity
20015;BME280;61787;42.022;23.078;2023-06-04T00:00:03;96820.06;;;18.73;100.00
20015;BME280;61787;42.022;23.078;2023-06-04T00:01:05;96817.75;;;18.64;100.00
20015;BME280;61787;42.022;23.078;2023-06-04T00:02:17;96810.38;;;18.61;100.00
20015;BME280;61787;42.022;23.078;2023-06-04T00:03:18;96820.06;;;18.59;100.00
20015;BME280;61787;42.022;23.078;2023-06-04T00:04:20;96822.78;;;18.59;100.00
20015;BME280;61787;42.022;23.078;2023-06-04T00:05:23;96822.41;;;18.57;100.00
20015;BME280;61787;42.022;23.078;2023-06-04T00:06:26;96822.41;;;18.57;100.00
20015;BME280;61787;42.022;23.078;2023-06-04T00:07:28;96815.41;;;18.59;100.00
20015;BME280;61787;42.022;23.078;2023-06-04T00:08:30;96813.88;;;18.62;100.00
20015;BME280;61787;42.022;23.078;2023-06-04T00:09:31;96820.09;;;18.66;100.00
20015;BME280;61787;42.022;23.078;2023-06-04T00:10:33;96813.50;;;18.67;100.00
20015;BME280;61787;42.022;23.078;2023-06-04T00:11:35;96813.88;;;18.69;100.00
20015;BME280;61787;42.022;23.078;2023-06-04T00:12:38;96825.88;;;18.68;100.00
20015;BME280;61787;42.022;23.078;2023-06-04T00:13:39;96820.09;;;18.69;100.00
20015;BME280;61787;42.022;23.078;2023-06-04T00:14:41;96821.63;;;18.74;100.00
20015;BME280;61787;42.022;23.078;2023-06-04T00:15:43;96820.88;;;18.81;100.00
20015;BME280;61787;42.022;23.078;2023-06-04T00:16:44;96822.44;;;18.85;100.00
20015;BME280;61787;42.022;23.078;2023-06-04T00:17:46;96824.78;;;18.90;100.00
20015;BME280;61787;42.022;23.078;2023-06-04T00:18:48;96824.00;;;18.97;100.00
20015;BME280;61787;42.022;23.078;2023-06-04T00:19:50;96822.44;;;18.99;100.00
20015;BME280;61787;42.022;23.078;2023-06-04T00:20:51;96824.00;;;18.93;100.00
20015;BME280;61787;42.022;23.078;2023-06-04T00:21:53;96820.13;;;18.94;100.00
20015;BME280;61787;42.022;23.078;2023-06-04T00:22:54;96820.88;;;18.84;100.00
20015;BME280;61787;42.022;23.078;2023-06-04T00:23:56;96819.69;;;18.78;100.00
20015;BME280;61787;42.022;23.078;2023-06-04T00:24:58;96817.78;;;18.71;100.00
20015;BME280;61787;42.022;23.078;2023-06-04T00:26:00;96817.75;;;18.68;100.00
20015;BME280;61787;42.022;23.078;2023-06-04T00:27:01;96821.66;;;18.67;100.00
20015;BME280;61787;42.022;23.078;2023-06-04T00:28:03;96824.72;;;18.69;100.00
20015;BME280;61787;42.022;23.078;2023-06-04T00:29:05;96823.97;;;18.72;100.00
20015;BME280;61787;42.022;23.078;2023-06-04T00:30:07;96813.50;;;18.67;100.00
20015;BME280;61787;42.022;23.078;2023-06-04T00:31:09;96812.31;;;18.68;100.00
20015;BME280;61787;42.022;23.078;2023-06-04T00:32:11;96819.31;;;18.62;100.00
20015;BME280;61787;42.022;23.078;2023-06-04T00:33:13;96817.72;;;18.54;100.00
20015;BME280;61787;42.022;23.078;2023-06-04T00:34:17;96822.34;;;18.50;100.00
20015;BME280;61787;42.022;23.078;2023-06-04T00:35:18;96824.66;;;18.48;100.00
20015;BME280;61787;42.022;23.078;2023-06-04T00:36:20;96820.00;;;18.48;100.00
20015;BME280;61787;42.022;23.078;2023-06-04T00:37:22;96822.34;;;18.50;100.00
20015;BME280;61787;42.022;23.078;2023-06-04T00:38:24;96820.78;;;18.49;100.00
20015;BME280;61787;42.022;23.078;2023-06-04T00:39:25;96823.16;;;18.54;100.00
20015;BME280;61787;42.022;23.078;2023-06-04T00:40:27;96818.50;;;18.58;100.00
20015;BME280;61787;42.022;23.078;2023-06-04T00:41:29;96825.13;;;18.57;100.00
20015;BME280;61787;42.022;23.078;2023-06-04T00:42:31;96821.63;;;18.56;100.00
20015;BME280;61787;42.022;23.078;2023-06-04T00:43:32;96821.56;;;18.53;100.00
20015;BME280;61787;42.022;23.078;2023-06-04T00:44:34;96816.09;;;18.39;100.00
20015;BME280;61787;42.022;23.078;2023-06-04T00:45:37;96820.69;;;18.24;100.00
20015;BME280;61787;42.022;23.078;2023-06-04T00:46:39;96816.78;;;18.14;100.00
20015;BME280;61787;42.022;23.078;2023-06-04T00:47:41;96824.50;;;18.12;100.00
20015;BME280;61787;42.022;23.078;2023-06-04T00:48:43;96816.75;;;18.07;100.00
20015;BME280;61787;42.022;23.078;2023-06-04T00:49:45;96814.44;;;18.09;100.00
20015;BME280;61787;42.022;23.078;2023-06-04T00:50:47;96813.69;;;18.19;100.00
20015;BME280;61787;42.022;23.078;2023-06-04T00:51:50;96812.56;;;18.27;100.00
20015;BME280;61787;42.022;23.078;2023-06-04T00:52:51;96813.34;;;18.31;100.00
20015;BME280;61787;42.022;23.078;2023-06-04T00:53:53;96814.16;;;18.36;100.00
20015;BME280;61787;42.022;23.078;2023-06-04T00:54:55;96816.06;;;18.31;100.00
20015;BME280;61787;42.022;23.078;2023-06-04T00:55:57;96804.38;;;18.10;100.00
20015;BME280;61787;42.022;23.078;2023-06-04T00:56:59;96818.97;;;17.91;100.00
20015;BME280;61787;42.022;23.078;2023-06-04T00:58:00;96813.13;;;17.78;100.00
20015;BME280;61787;42.022;23.078;2023-06-04T00:59:06;96820.47;;;17.78;100.00
20015;BME280;61787;42.022;23.078;2023-06-04T01:00:08;96822.00;;;17.72;100.00
20015;BME280;61787;42.022;23.078;2023-06-04T01:01:29;96813.06;;;17.68;100.00
20015;BME280;61787;42.022;23.078;2023-06-04T01:02:35;96817.34;;;17.69;100.00
20015;BME280;61787;42.022;23.078;2023-06-04T01:03:42;96812.28;;;17.71;100.00
20015;BME280;61787;42.022;23.078;2023-06-04T01:05:30;96815.84;;;17.82;100.00
20015;BME280;61787;42.022;23.078;2023-06-04T01:06:18;96806.97;;;17.85;100.00
20015;BME280;61787;42.022;23.078;2023-06-04T01:07:23;96813.56;;;17.91;100.00
20015;BME280;61787;42.022;23.078;2023-06-04T01:08:27;96805.00;;;17.85;100.00
20015;BME280;61787;42.022;23.078;2023-06-04T01:09:29;96808.13;;;17.84;100.00
20015;BME280;61787;42.022;23.078;2023-06-04T01:10:31;96815.84;;;17.82;100.00
20015;BME280;61787;42.022;23.078;2023-06-04T01:11:35;96816.97;;;17.77;100.00
20015;BME280;61787;42.022;23.078;2023-06-04T01:12:40;96811.91;;;17.72;100.00
20015;BME280;61787;42.022;23.078;2023-06-04T01:13:41;96815.78;;;17.68;100.00
20015;BME280;61787;42.022;23.078;2023-06-04T01:14:43;96817.28;;;17.62;100.00
20015;BME280;61787;42.022;23.078;2023-06-04T01:15:45;96815.72;;;17.61;100.00
20015;BME280;61787;42.022;23.078;2023-06-04T01:16:50;96814.56;;;17.62;100.00
20015;BME280;61787;42.022;23.078;2023-06-04T01:18:03;96818.00;;;17.59;100.00
20015;BME280;61787;42.022;23.078;2023-06-04T01:20:05;96808.66;;;17.53;100.00
20015;BME280;61787;42.022;23.078;2023-06-04T01:20:44;96809.34;;;17.39;100.00
20015;BME280;61787;42.022;23.078;2023-06-04T01:21:50;96815.88;;;17.34;100.00
20015;BME280;61787;42.022;23.078;2023-06-04T01:24:00;96818.50;;;17.20;100.00
20015;BME280;61787;42.022;23.078;2023-06-04T01:25:05;96823.53;;;17.18;100.00
20015;BME280;61787;42.022;23.078;2023-06-04T01:26:08;96811.16;;;17.24;100.00
20015;BME280;61787;42.022;23.078;2023-06-04T01:27:11;96817.06;;;17.33;100.00
20015;BME280;61787;42.022;23.078;2023-06-04T01:28:13;96821.72;;;17.36;100.00
20015;BME280;61787;42.022;23.078;2023-06-04T01:29:17;96821.78;;;17.43;100.00
20015;BME280;61787;42.022;23.078;2023-06-04T01:30:23;96821.09;;;17.54;100.00
20015;BME280;61787;42.022;23.078;2023-06-04T01:31:25;96820.72;;;17.59;100.00
20015;BME280;61787;42.022;23.078;2023-06-04T01:32:27;96820.00;;;17.65;100.00
20015;BME280;61787;42.022;23.078;2023-06-04T01:33:29;96819.63;;;17.67;100.00
20015;BME280;61787;42.022;23.078;2023-06-04T01:34:43;96813.44;;;17.70;100.00
20015;BME280;61787;42.022;23.078;2023-06-04T01:35:45;96818.19;;;17.80;100.00
20015;BME280;61787;42.022;23.078;2023-06-04T01:36:47;96816.63;;;17.86;100.00
20015;BME280;61787;42.022;23.078;2023-06-04T01:37:49;96826.38;;;17.94;100.00
20015;BME280;61787;42.022;23.078;2023-06-04T01:38:51;96819.03;;;17.98;100.00
20015;BME280;61787;42.022;23.078;2023-06-04T01:39:52;96818.63;;;17.96;100.00
20015;BME280;61787;42.022;23.078;2023-06-04T01:40:54;96817.09;;;17.99;100.00
20015;BME280;61787;42.022;23.078;2023-06-04T01:41:57;96820.59;;;18.06;100.00
20015;BME280;61787;42.022;23.078;2023-06-04T01:42:59;96827.22;;;18.12;100.00
20015;BME280;61787;42.022;23.078;2023-06-04T01:44:00;96822.56;;;18.09;100.00
20015;BME280;61787;42.022;23.078;2023-06-04T01:45:03;96825.97;;;17.92;100.00
20015;BME280;61787;42.022;23.078;2023-06-04T01:46:05;96822.06;;;17.82;100.00
20015;BME280;61787;42.022;23.078;2023-06-04T01:47:06;96825.59;;;17.90;100.00
20015;BME280;61787;42.022;23.078;2023-06-04T01:48:08;96824.06;;;17.96;100.00
20015;BME280;61787;42.022;23.078;2023-06-04T01:49:10;96822.53;;;17.95;100.00
20015;BME280;61787;42.022;23.078;2023-06-04T01:50:12;96827.09;;;17.84;100.00
20015;BME280;61787;42.022;23.078;2023-06-04T01:51:13;96821.25;;;17.78;100.00
20015;BME280;61787;42.022;23.078;2023-06-04T01:52:15;96822.03;;;17.79;100.00
20015;BME280;61787;42.022;23.078;2023-06-04T01:53:18;96826.69;;;17.82;100.00
20015;BME280;61787;42.022;23.078;2023-06-04T01:54:19;96822.06;;;17.86;100.00
20015;BME280;61787;42.022;23.078;2023-06-04T01:55:21;96828.31;;;17.97;100.00
20015;BME280;61787;42.022;23.078;2023-06-04T01:56:22;96826.81;;;18.03;100.00
20015;BME280;61787;42.022;23.078;2023-06-04T01:57:24;96824.50;;;18.09;100.00
20015;BME280;61787;42.022;23.078;2023-06-04T01:58:26;96828.44;;;18.18;100.00
20015;BME280;61787;42.022;23.078;2023-06-04T01:59:28;96835.44;;;18.26;100.00
20015;BME280;61787;42.022;23.078;2023-06-04T02:00:30;96834.69;;;18.37;100.00
20015;BME280;61787;42.022;23.078;2023-06-04T02:01:32;96831.22;;;18.47;100.00
20015;BME280;61787;42.022;23.078;2023-06-04T02:02:33;96828.91;;;18.49;100.00
20015;BME280;61787;42.022;23.078;2023-06-04T02:03:35;96835.53;;;18.51;100.00
20015;BME280;61787;42.022;23.078;2023-06-04T02:04:42;96826.25;;;18.59;100.00
20015;BME280;61787;42.022;23.078;2023-06-04T02:05:44;96830.53;;;18.64;100.00
20015;BME280;61787;42.022;23.078;2023-06-04T02:06:47;96835.59;;;18.69;100.00
20015;BME280;61787;42.022;23.078;2023-06-04T02:07:50;96840.28;;;18.72;100.00
20015;BME280;61787;42.022;23.078;2023-06-04T02:08:52;96834.44;;;18.73;100.00
20015;BME280;61787;42.022;23.078;2023-06-04T02:09:55;96837.94;;;18.74;100.00
20015;BME280;61787;42.022;23.078;2023-06-04T02:10:57;96838.72;;;18.78;100.00
20015;BME280;61787;42.022;23.078;2023-06-04T02:11:58;96837.97;;;18.81;100.00
20015;BME280;61787;42.022;23.078;2023-06-04T02:13:01;96836.41;;;18.80;100.00
20015;BME280;61787;42.022;23.078;2023-06-04T02:14:04;96841.06;;;18.83;100.00
20015;BME280;61787;42.022;23.078;2023-06-04T02:15:09;96841.47;;;18.82;100.00
20015;BME280;61787;42.022;23.078;2023-06-04T02:16:11;96842.59;;;18.70;100.00
20015;BME280;61787;42.022;23.078;2023-06-04T02:17:13;96848.78;;;18.60;100.00
20015;BME280;61787;42.022;23.078;2023-06-04T02:18:16;96848.00;;;18.63;100.00
20015;BME280;61787;42.022;23.078;2023-06-04T02:19:19;96853.47;;;18.70;100.00
20015;BME280;61787;42.022;23.078;2023-06-04T02:20:21;96848.81;;;18.74;100.00
20015;BME280;61787;42.022;23.078;2023-06-04T02:21:22;96854.25;;;18.70;100.00
20015;BME280;61787;42.022;23.078;2023-06-04T02:22:24;96852.69;;;18.73;100.00
20015;BME280;61787;42.022;23.078;2023-06-04T02:23:26;96850.38;;;18.75;100.00
20015;BME280;61787;42.022;23.078;2023-06-04T02:24:28;96850.38;;;18.75;100.00
20015;BME280;61787;42.022;23.078;2023-06-04T02:25:29;96852.69;;;18.73;100.00
20015;BME280;61787;42.022;23.078;2023-06-04T02:26:31;96847.66;;;18.75;100.00
20015;BME280;61787;42.022;23.078;2023-06-04T02:27:33;96856.59;;;18.79;100.00
20015;BME280;61787;42.022;23.078;2023-06-04T02:28:35;96844.94;;;18.79;100.00
20015;BME280;61787;42.022;23.078;2023-06-04T02:29:38;96852.72;;;18.80;100.00
20015;BME280;61787;42.022;23.078;2023-06-04T02:30:40;96858.91;;;18.84;100.00
20015;BME280;61787;42.022;23.078;2023-06-04T02:31:42;96857.75;;;18.89;100.00
20015;BME280;61787;42.022;23.078;2023-06-04T02:32:43;96858.16;;;18.91;100.00
20015;BME280;61787;42.022;23.078;2023-06-04T02:33:51;96865.16;;;18.95;100.00
20015;BME280;61787;42.022;23.078;2023-06-04T02:34:53;96866.34;;;18.98;100.00
20015;BME280;61787;42.022;23.078;2023-06-04T02:35:55;96864.38;;;18.98;100.00
20015;BME280;61787;42.022;23.078;2023-06-04T02:36:57;96860.50;;;18.96;100.00
20015;BME280;61787;42.022;23.078;2023-06-04T02:37:59;96865.16;;;18.95;100.00
20015;BME280;61787;42.022;23.078;2023-06-04T02:39:02;96862.84;;;18.97;100.00
20015;BME280;61787;42.022;23.078;2023-06-04T02:40:04;96876.41;;;18.90;100.00
20015;BME280;61787;42.022;23.078;2023-06-04T02:41:06;96871.34;;;18.85;100.00
20015;BME280;61787;42.022;23.078;2023-06-04T02:42:08;96869.41;;;18.86;100.00
20015;BME280;61787;42.022;23.078;2023-06-04T02:43:10;96872.91;;;18.86;100.00
20015;BME280;61787;42.022;23.078;2023-06-04T02:44:12;96879.50;;;18.85;100.00
20015;BME280;61787;42.022;23.078;2023-06-04T02:45:14;96876.38;;;18.83;100.00
20015;BME280;61787;42.022;23.078;2023-06-04T02:46:15;96883.00;;;18.82;100.00
20015;BME280;61787;42.022;23.078;2023-06-04T02:47:17;96872.13;;;18.82;100.00
20015;BME280;61787;42.022;23.078;2023-06-04T02:48:20;96877.94;;;18.81;100.00
20015;BME280;61787;42.022;23.078;2023-06-04T02:49:22;96880.63;;;18.73;100.00
20015;BME280;61787;42.022;23.078;2023-06-04T02:50:24;96879.06;;;18.62;100.00
20015;BME280;61787;42.022;23.078;2023-06-04T02:51:26;96884.03;;;18.53;100.00
20015;BME280;61787;42.022;23.078;2023-06-04T02:52:29;96876.56;;;18.32;100.00
20015;BME280;61787;42.022;23.078;2023-06-04T02:53:31;96880.41;;;18.20;100.00
20015;BME280;61787;42.022;23.078;2023-06-04T02:54:33;96879.94;;;18.11;100.00
20015;BME280;61787;42.022;23.078;2023-06-04T02:55:35;96879.16;;;18.07;100.00
20015;BME280;61787;42.022;23.078;2023-06-04T02:56:37;96883.38;;;18.01;100.00
20015;BME280;61787;42.022;23.078;2023-06-04T02:57:40;96880.28;;;17.99;100.00
20015;BME280;61787;42.022;23.078;2023-06-04T02:58:55;96882.56;;;17.94;100.00
20015;BME280;61787;42.022;23.078;2023-06-04T02:59:57;96886.44;;;17.89;100.00
20015;BME280;61787;42.022;23.078;2023-06-04T03:00:59;96889.03;;;17.75;100.00
20015;BME280;61787;42.022;23.078;2023-06-04T03:02:01;96886.31;;;17.75;100.00
20015;BME280;61787;42.022;23.078;2023-06-04T03:03:02;96887.16;;;17.79;100.00
20015;BME280;61787;42.022;23.078;2023-06-04T03:04:04;96887.16;;;17.79;100.00
20015;BME280;61787;42.022;23.078;2023-06-04T03:05:09;96880.94;;;17.82;100.00
20015;BME280;61787;42.022;23.078;2023-06-04T03:06:12;96887.53;;;17.81;100.00
20015;BME280;61787;42.022;23.078;2023-06-04T03:07:15;96884.81;;;17.81;100.00
20015;BME280;61787;42.022;23.078;2023-06-04T03:08:21;96880.94;;;17.82;100.00
20015;BME280;61787;42.022;23.078;2023-06-04T03:09:23;96882.44;;;17.76;100.00
20015;BME280;61787;42.022;23.078;2023-06-04T03:10:25;96882.06;;;17.74;100.00
20015;BME280;61787;42.022;23.078;2023-06-04T03:11:27;96882.88;;;17.78;100.00
20015;BME280;61787;42.022;23.078;2023-06-04T03:12:29;96884.78;;;17.74;100.00
20015;BME280;61787;42.022;23.078;2023-06-04T03:13:30;96884.72;;;17.67;100.00
20015;BME280;61787;42.022;23.078;2023-06-04T03:14:32;96885.50;;;17.64;100.00
20015;BME280;61787;42.022;23.078;2023-06-04T03:15:34;96890.94;;;17.71;100.00
20015;BME280;61787;42.022;23.078;2023-06-04T03:16:40;96884.78;;;17.74;100.00
20015;BME280;61787;42.022;23.078;2023-06-04T03:17:42;96890.59;;;17.76;100.00
20015;BME280;61787;42.022;23.078;2023-06-04T03:18:45;96893.38;;;17.83;100.00
20015;BME280;61787;42.022;23.078;2023-06-04T03:19:47;96896.50;;;17.85;100.00
20015;BME280;61787;42.022;23.078;2023-06-04T03:20:49;96891.81;;;17.82;100.00
20015;BME280;61787;42.022;23.078;2023-06-04T03:21:51;96888.72;;;17.83;100.00
20015;BME280;61787;42.022;23.078;2023-06-04T03:22:53;96896.09;;;17.86;100.00
20015;BME280;61787;42.022;23.078;2023-06-04T03:23:55;96897.66;;;17.91;100.00
20015;BME280;61787;42.022;23.078;2023-06-04T03:24:57;96894.59;;;17.96;100.00
20015;BME280;61787;42.022;23.078;2023-06-04T03:25:58;96900.44;;;18.02;100.00
20015;BME280;61787;42.022;23.078;2023-06-04T03:27:00;96904.75;;;18.06;100.00
20015;BME280;61787;42.022;23.078;2023-06-04T03:28:02;96904.00;;;18.13;100.00
20015;BME280;61787;42.022;23.078;2023-06-04T03:29:04;96897.44;;;18.17;100.00
20015;BME280;61787;42.022;23.078;2023-06-04T03:30:06;96905.22;;;18.22;100.00
20015;BME280;61787;42.022;23.078;2023-06-04T03:31:08;96909.13;;;18.25;100.00
20015;BME280;61787;42.022;23.078;2023-06-04T03:32:10;96906.06;;;18.33;100.00
20015;BME280;61787;42.022;23.078;2023-06-04T03:33:12;96905.31;;;18.44;100.00
20015;BME280;61787;42.022;23.078;2023-06-04T03:34:14;96905.34;;;18.47;100.00
20015;BME280;61787;42.022;23.078;2023-06-04T03:35:15;96900.31;;;18.46;100.00
20015;BME280;61787;42.022;23.078;2023-06-04T03:36:17;96908.41;;;18.39;100.00
20015;BME280;61787;42.022;23.078;2023-06-04T03:37:19;96906.06;;;18.33;100.00
20015;BME280;61787;42.022;23.078;2023-06-04T03:38:20;96911.44;;;18.26;100.00
20015;BME280;61787;42.022;23.078;2023-06-04T03:39:22;96909.09;;;18.21;100.00
20015;BME280;61787;42.022;23.078;2023-06-04T03:40:24;96913.00;;;18.24;100.00
20015;BME280;61787;42.022;23.078;2023-06-04T03:41:25;96913.78;;;18.24;100.00
20015;BME280;61787;42.022;23.078;2023-06-04T03:42:27;96919.22;;;18.28;100.00
20015;BME280;61787;42.022;23.078;2023-06-04T03:43:29;96921.94;;;18.31;100.00
20015;BME280;61787;42.022;23.078;2023-06-04T03:44:31;96920.41;;;18.38;100.00
20015;BME280;61787;42.022;23.078;2023-06-04T03:45:32;96920.06;;;18.43;100.00
20015;BME280;61787;42.022;23.078;2023-06-04T03:46:34;96918.50;;;18.42;100.00
20015;BME280;61787;42.022;23.078;2023-06-04T03:47:38;96920.47;;;18.45;100.00
20015;BME280;61787;42.022;23.078;2023-06-04T03:48:41;96920.09;;;18.50;100.00
20015;BME280;61787;42.022;23.078;2023-06-04T03:49:43;96918.97;;;18.54;100.00
20015;BME280;61787;42.022;23.078;2023-06-04T03:50:44;96917.06;;;18.58;100.00
20015;BME280;61787;42.022;23.078;2023-06-04T03:51:47;96924.06;;;18.63;100.00
20015;BME280;61787;42.022;23.078;2023-06-04T03:52:49;96919.41;;;18.60;100.00
20015;BME280;61787;42.022;23.078;2023-06-04T03:53:51;96913.19;;;18.56;100.00
20015;BME280;61787;42.022;23.078;2023-06-04T03:54:52;96921.31;;;18.56;100.00
20015;BME280;61787;42.022;23.078;2023-06-04T03:55:54;96916.28;;;18.58;100.00
20015;BME280;61787;42.022;23.078;2023-06-04T03:56:56;96918.59;;;18.56;100.00
20015;BME280;61787;42.022;23.078;2023-06-04T03:57:58;96928.69;;;18.55;100.00
20015;BME280;61787;42.022;23.078;2023-06-04T03:59:00;96921.31;;;18.56;100.00
20015;BME280;61787;42.022;23.078;2023-06-04T04:00:02;96920.94;;;18.57;100.00
20015;BME280;61787;42.022;23.078;2023-06-04T04:01:05;96924.81;;;18.60;100.00
20015;BME280;61787;42.022;23.078;2023-06-04T04:02:07;96930.66;;;18.62;100.00
20015;BME280;61787;42.022;23.078;2023-06-04T04:03:08;96932.59;;;18.65;100.00
20015;BME280;61787;42.022;23.078;2023-06-04T04:04:11;96933.41;;;18.69;100.00
20015;BME280;61787;42.022;23.078;2023-06-04T04:05:13;96929.53;;;18.70;100.00
20015;BME280;61787;42.022;23.078;2023-06-04T04:06:17;96929.94;;;18.72;100.00
20015;BME280;61787;42.022;23.078;2023-06-04T04:07:20;96935.72;;;18.70;100.00
20015;BME280;61787;42.022;23.078;2023-06-04T04:08:22;96925.25;;;18.62;100.00
20015;BME280;61787;42.022;23.078;2023-06-04T04:09:24;96928.34;;;18.64;100.00
20015;BME280;61787;42.022;23.078;2023-06-04T04:10:26;96931.88;;;18.71;100.00
20015;BME280;61787;42.022;23.078;2023-06-04T04:11:28;96942.75;;;18.75;100.00
20015;BME280;61787;42.022;23.078;2023-06-04T04:12:29;96932.66;;;18.72;100.00
20015;BME280;61787;42.022;23.078;2023-06-04T04:13:31;96939.59;;;18.69;100.00
20015;BME280;61787;42.022;23.078;2023-06-04T04:14:33;96935.31;;;18.65;100.00
20015;BME280;61787;42.022;23.078;2023-06-04T04:15:34;96939.56;;;18.62;100.00
20015;BME280;61787;42.022;23.078;2023-06-04T04:16:36;96941.91;;;18.67;100.00
20015;BME280;61787;42.022;23.078;2023-06-04T04:17:38;96941.97;;;18.78;100.00
20015;BME280;61787;42.022;23.078;2023-06-04T04:18:41;96950.56;;;18.87;100.00
20015;BME280;61787;42.022;23.078;2023-06-04T04:19:44;96953.66;;;18.89;100.00
20015;BME280;61787;42.022;23.078;2023-06-04T04:20:46;96951.34;;;18.91;100.00
20015;BME280;61787;42.022;23.078;2023-06-04T04:21:48;96960.66;;;18.90;100.00
20015;BME280;61787;42.022;23.078;2023-06-04T04:22:50;96957.56;;;18.95;100.00
20015;BME280;61787;42.022;23.078;2023-06-04T04:23:52;96960.69;;;18.97;100.00
20015;BME280;61787;42.022;23.078;2023-06-04T04:24:53;96951.75;;;19.00;100.00
20015;BME280;61787;42.022;23.078;2023-06-04T04:25:55;96960.69;;;18.97;100.00
20015;BME280;61787;42.022;23.078;2023-06-04T04:26:57;96963.00;;;18.92;100.00
20015;BME280;61787;42.022;23.078;2023-06-04T04:28:00;96962.59;;;18.93;100.00
20015;BME280;61787;42.022;23.078;2023-06-04T04:29:02;96960.66;;;18.94;100.00
20015;BME280;61787;42.022;23.078;2023-06-04T04:30:04;96962.59;;;18.93;100.00
20015;BME280;61787;42.022;23.078;2023-06-04T04:31:06;96964.16;;;18.91;100.00
20015;BME280;61787;42.022;23.078;2023-06-04T04:32:10;96964.56;;;18.93;100.00
20015;BME280;61787;42.022;23.078;2023-06-04T04:33:12;96966.88;;;18.91;100.00
20015;BME280;61787;42.022;23.078;2023-06-04T04:34:17;96963.34;;;18.87;100.00
20015;BME280;61787;42.022;23.078;2023-06-04T04:35:21;96967.56;;;18.66;100.00
20015;BME280;61787;42.022;23.078;2023-06-04T04:36:25;96965.06;;;18.40;100.00
20015;BME280;61787;42.022;23.078;2023-06-04T04:37:27;96959.50;;;18.22;100.00
20015;BME280;61787;42.022;23.078;2023-06-04T04:38:29;96957.19;;;18.21;100.00
20015;BME280;61787;42.022;23.078;2023-06-04T04:39:32;96961.81;;;18.17;100.00
20015;BME280;61787;42.022;23.078;2023-06-04T04:40:34;96954.00;;;18.08;100.00
20015;BME280;61787;42.022;23.078;2023-06-04T04:41:37;96955.56;;;18.09;100.00
20015;BME280;61787;42.022;23.078;2023-06-04T04:42:39;96956.28;;;18.06;100.00
20015;BME280;61787;42.022;23.078;2023-06-04T04:43:41;96958.66;;;18.08;100.00
20015;BME280;61787;42.022;23.078;2023-06-04T04:44:42;96962.91;;;18.05;100.00
20015;BME280;61787;42.022;23.078;2023-06-04T04:45:48;96959.28;;;17.90;100.00
20015;BME280;61787;42.022;23.078;2023-06-04T04:46:50;96960.06;;;17.91;100.00
20015;BME280;61787;42.022;23.078;2023-06-04T04:47:51;96963.59;;;17.95;100.00
20015;BME280;61787;42.022;23.078;2023-06-04T04:48:53;96964.34;;;17.92;100.00
20015;BME280;61787;42.022;23.078;2023-06-04T04:49:55;96963.97;;;17.90;100.00
20015;BME280;61787;42.022;23.078;2023-06-04T04:50:57;96952.31;;;17.89;100.00
20015;BME280;61787;42.022;23.078;2023-06-04T04:51:58;96961.63;;;17.88;100.00
20015;BME280;61787;42.022;23.078;2023-06-04T04:53:00;96957.66;;;17.79;100.00
20015;BME280;61787;42.022;23.078;2023-06-04T04:54:03;96956.09;;;17.78;100.00
20015;BME280;61787;42.022;23.078;2023-06-04T04:55:04;96960.38;;;17.79;100.00
20015;BME280;61787;42.022;23.078;2023-06-04T04:56:06;96957.69;;;17.82;100.00
20015;BME280;61787;42.022;23.078;2023-06-04T04:57:08;96952.63;;;17.81;100.00
20015;BME280;61787;42.022;23.078;2023-06-04T04:58:15;96956.84;;;17.75;100.00
20015;BME280;61787;42.022;23.078;2023-06-04T04:59:16;96963.03;;;17.75;100.00
20015;BME280;61787;42.022;23.078;2023-06-04T05:00:18;96954.88;;;17.72;100.00
20015;BME280;61787;42.022;23.078;2023-06-04T05:01:21;96956.03;;;17.71;100.00
20015;BME280;61787;42.022;23.078;2023-06-04T05:02:23;96959.50;;;17.68;100.00
20015;BME280;61787;42.022;23.078;2023-06-04T05:03:24;96954.34;;;17.56;100.00
20015;BME280;61787;42.022;23.078;2023-06-04T05:04:26;96952.78;;;17.55;100.00
20015;BME280;61787;42.022;23.078;2023-06-04T05:05:27;96954.34;;;17.56;100.00
20015;BME280;61787;42.022;23.078;2023-06-04T05:06:29;96954.34;;;17.56;100.00
20015;BME280;61787;42.022;23.078;2023-06-04T05:07:31;96957.03;;;17.56;100.00
20015;BME280;61787;42.022;23.078;2023-06-04T05:08:33;96955.47;;;17.51;100.00
20015;BME280;61787;42.022;23.078;2023-06-04T05:09:35;96957.38;;;17.51;100.00
20015;BME280;61787;42.022;23.078;2023-06-04T05:10:37;96960.94;;;17.58;100.00
20015;BME280;61787;42.022;23.078;2023-06-04T05:11:39;96960.41;;;17.42;100.00
20015;BME280;61787;42.022;23.078;2023-06-04T05:12:53;96956.50;;;17.39;100.00
20015;BME280;61787;42.022;23.078;2023-06-04T05:13:55;96955.78;;;17.42;100.00
20015;BME280;61787;42.022;23.078;2023-06-04T05:14:57;96964.31;;;17.44;100.00
20015;BME280;61787;42.022;23.078;2023-06-04T05:15:59;96955.09;;;17.53;100.00
20015;BME280;61787;42.022;23.078;2023-06-04T05:17:06;96962.16;;;17.61;100.00
20015;BME280;61787;42.022;23.078;2023-06-04T05:18:08;96961.25;;;17.49;100.00
20015;BME280;61787;42.022;23.078;2023-06-04T05:19:09;96967.34;;;17.39;100.00
20015;BME280;61787;42.022;23.078;2023-06-04T05:20:13;96968.91;;;17.40;100.00
20015;BME280;61787;42.022;23.078;2023-06-04T05:21:16;96960.31;;;17.31;100.00
20015;BME280;61787;42.022;23.078;2023-06-04T05:22:18;96966.81;;;17.23;100.00
20015;BME280;61787;42.022;23.078;2023-06-04T05:23:24;96960.63;;;17.23;100.00
20015;BME280;61787;42.022;23.078;2023-06-04T05:24:26;96961.06;;;17.28;100.00